createdAt,value
2023-03-23T16:18:38.687Z,3.88
2023-03-23T16:23:33.712Z,6.07
2023-03-23T16:41:00.013Z,3.78
2023-03-23T16:44:10.656Z,6.82
2023-03-23T16:48:05.598Z,4.03
2023-03-23T16:51:24.450Z,4.17
2023-03-23T16:54:36.828Z,5.30
2023-03-23T16:57:44.150Z,7.88
2023-03-23T17:05:04.562Z,8.00
2023-03-23T17:08:43.279Z,6.93
2023-03-23T17:11:57.482Z,5.03
2023-03-23T17:15:18.659Z,6.95
2023-03-23T17:18:51.309Z,10.13
2023-03-23T17:21:56.633Z,13.35
2023-03-23T17:25:15.683Z,9.13
2023-03-23T17:28:57.599Z,5.10
2023-03-23T17:32:26.234Z,6.38
2023-03-23T17:39:44.881Z,12.35
2023-03-23T17:43:08.303Z,7.53
2023-03-23T17:50:42.229Z,6.70
2023-03-23T18:01:37.262Z,5.77
2023-03-23T18:05:46.006Z,12.43
2023-03-23T18:09:26.233Z,10.38
2023-03-23T18:12:39.442Z,11.15
2023-03-23T18:16:17.214Z,9.45
2023-03-23T18:19:53.755Z,11.10
2023-03-23T18:22:59.600Z,14.00
2023-03-23T18:26:18.329Z,13.52
2023-03-23T18:30:20.557Z,12.40
2023-03-23T18:33:29.891Z,18.85
2023-03-23T18:36:43.262Z,14.00
2023-03-23T18:40:05.380Z,14.65
2023-03-23T18:43:20.840Z,18.10
2023-03-23T18:46:54.508Z,14.15
2023-03-23T18:50:12.118Z,11.48
2023-03-23T18:53:20.712Z,10.83
2023-03-23T18:56:48.334Z,12.07
2023-03-23T18:59:59.088Z,13.88
2023-03-23T19:03:16.100Z,19.20
2023-03-23T19:06:37.380Z,17.17
2023-03-23T19:10:08.820Z,16.80
2023-03-23T19:13:24.873Z,13.90
2023-03-23T19:16:40.635Z,16.90
2023-03-23T19:21:12.539Z,14.98
2023-03-23T19:29:45.430Z,16.23
2023-03-23T19:33:54.514Z,15.38
2023-03-23T19:37:17.502Z,15.18
2023-03-23T19:40:42.582Z,14.18
2023-03-23T19:43:58.075Z,16.13
2023-03-23T19:47:23.354Z,26.27
2023-03-23T19:50:41.510Z,15.63
2023-03-23T19:54:07.599Z,17.55
2023-03-23T19:57:23.252Z,18.83
2023-03-23T20:00:29.074Z,15.35
2023-03-23T20:03:39.516Z,20.67
2023-03-23T20:07:03.191Z,18.02
2023-03-23T20:10:33.494Z,14.93
2023-03-23T20:13:52.819Z,26.35
2023-03-23T20:17:09.754Z,19.33
2023-03-23T20:20:29.583Z,22.73
2023-03-23T20:27:08.076Z,19.00
2023-03-23T20:30:43.450Z,18.90
2023-03-23T20:34:00.856Z,21.73
2023-03-23T20:37:13.137Z,20.67
2023-03-23T20:44:18.360Z,18.67
2023-03-23T20:47:25.146Z,16.08
2023-03-23T20:50:34.436Z,14.32
2023-03-23T20:53:45.913Z,15.03
2023-03-23T20:57:09.907Z,14.40
2023-03-23T21:00:16.715Z,16.42
2023-03-23T21:03:23.365Z,16.58
2023-03-23T21:06:32.478Z,15.30
2023-03-23T21:09:49.669Z,13.87
2023-03-23T21:12:53.970Z,12.38
2023-03-23T21:15:58.172Z,17.58
2023-03-23T21:19:15.681Z,12.57
2023-03-23T21:22:25.711Z,10.60
2023-03-23T21:25:38.505Z,13.63
2023-03-23T21:28:45.988Z,13.07
2023-03-23T21:32:08.688Z,13.90
2023-03-23T21:35:15.569Z,16.25
2023-03-23T21:38:33.277Z,16.83
2023-03-23T21:41:42.146Z,15.23
2023-03-23T21:44:49.983Z,12.60
2023-03-23T21:48:07.121Z,19.50
2023-03-23T21:51:14.118Z,14.60
2023-03-23T21:57:47.082Z,14.57
2023-03-23T22:04:14.256Z,14.45
2023-03-23T22:07:32.182Z,15.77
2023-03-23T22:10:43.606Z,16.83
2023-03-23T22:14:19.002Z,18.03
2023-03-23T22:18:50.694Z,17.30
2023-03-23T22:21:51.627Z,17.73
2023-03-23T22:25:16.218Z,16.23
2023-03-23T22:28:31.131Z,16.08
2023-03-23T22:32:07.286Z,21.07
2023-03-23T22:35:31.424Z,13.85
2023-03-23T22:39:15.348Z,15.27
2023-03-23T22:42:49.346Z,19.05
2023-03-23T22:46:17.514Z,16.33
2023-03-23T22:53:43.833Z,17.05
2023-03-23T22:57:07.095Z,17.23
2023-03-23T23:03:41.598Z,17.60
2023-03-23T23:07:06.676Z,16.53
2023-03-23T23:11:15.308Z,16.30
2023-03-23T23:14:53.724Z,14.23
2023-03-23T23:18:52.614Z,14.75
2023-03-23T23:22:19.893Z,14.52
2023-03-23T23:25:42.127Z,16.27
2023-03-23T23:29:44.196Z,14.70
2023-03-23T23:40:57.997Z,18.10
2023-03-23T23:53:50.400Z,18.42
2023-03-23T23:57:27.652Z,18.83
